INCM7: Indian Creek near Lanagan, MO

Data processed at Wed May 22 2019 23:50


All information presented herein is the property of the government of the United States of America and may be revised or deleted at any time without prior notice.
Dissemination of this information without the expressed written consent of the Public Affairs Office, Tulsa District U.S. Army Corps of Engineers is strictly prohibited.
These data are gathered electronically and, as presented, have not undergone any form of quality control. These data are not guaranteed to be valid or correct.
Go to home page.
Go to station list.
Go to home page.

Downstream station:


Previous Day
Next Day
Current Day
    
SHEF ID:       INCM7     Indian Creek near Lanagan, MO
STATION TYPE:  

               PRECIP     STAGE  RIV-FLOW  BAT-LOAD
                   in        ft       cfs      volt
              Ccp-Rev   Ccp-Rev   Ccp-Rev   Ccp-Rev
(US/Central)
05/22 00:00      0.00     11.27     10768     12.71
05/22 01:00      0.00     11.46     11101     12.71
05/22 02:00      0.00     11.51     11189     12.65
05/22 03:00      0.00     11.51     11189     12.65
05/22 04:00      0.00     11.44     11066     12.65
05/22 05:00      0.00     11.21     10664     12.65
05/22 06:00      0.00     10.70      9797     12.60
05/22 07:00      0.00      9.74      8250     12.60
05/22 08:00      0.00      8.86      6934     12.83
05/22 09:00      0.00      8.09      5864     13.24
05/22 10:00      ----      7.58      5211      ----
05/22 11:00      ----      ----      ----      ----
05/22 12:00      ----      7.06      4561     13.18
05/22 13:00      0.00      6.86      4311     13.42
05/22 14:00      0.00      6.69      4099     13.30
05/22 15:00      0.00      6.48      3837     13.36
05/22 16:00      ----      ----      ----      ----
05/22 17:00      ----      6.18      3461     13.30
05/22 18:00      0.00      5.98      3211     13.07
05/22 19:00      0.00      5.95      3174     12.83
05/22 20:00      0.00      5.81      2998     12.77
05/22 21:00      0.00      5.69      2849     12.77
05/22 22:00      0.07      5.59      2725     12.71
05/22 23:00      0.04      5.47      2579     12.71